createdAt,value
2018-07-13T00:02:32.492Z,6.77
2018-07-13T00:05:36.955Z,5.70
2018-07-13T00:08:41.805Z,5.07
2018-07-13T00:11:46.245Z,4.60
2018-07-13T00:15:07.540Z,4.57
2018-07-13T00:18:12.097Z,4.73
2018-07-13T00:21:16.417Z,4.23
2018-07-13T00:24:21.005Z,4.83
2018-07-13T00:27:25.695Z,5.60
2018-07-13T00:30:30.177Z,5.10
2018-07-13T00:33:34.980Z,5.43
2018-07-13T00:36:38.973Z,5.40
2018-07-13T00:39:43.447Z,5.20
2018-07-13T00:42:47.924Z,7.77
2018-07-13T00:45:52.267Z,4.80
2018-07-13T00:48:56.640Z,6.80
2018-07-13T00:52:01.061Z,5.93
2018-07-13T00:55:05.513Z,4.93
2018-07-13T00:58:09.784Z,6.00
2018-07-13T01:01:14.113Z,6.67
2018-07-13T01:04:18.436Z,5.50
2018-07-13T01:07:23.214Z,6.23
2018-07-13T01:10:27.776Z,5.03
2018-07-13T01:13:32.596Z,5.40
2018-07-13T01:16:36.936Z,5.67
2018-07-13T01:19:41.327Z,6.53
2018-07-13T01:22:45.942Z,5.87
2018-07-13T01:25:50.399Z,5.40
2018-07-13T01:28:55.020Z,5.73
2018-07-13T01:31:59.405Z,8.57
2018-07-13T01:35:04.332Z,6.63
2018-07-13T01:38:08.729Z,8.83
2018-07-13T01:41:12.975Z,5.73
2018-07-13T01:44:17.163Z,7.23
2018-07-13T01:47:21.691Z,10.63
2018-07-13T01:50:26.330Z,6.33
2018-07-13T01:53:32.048Z,8.77
2018-07-13T01:56:36.432Z,6.93
2018-07-13T01:59:40.772Z,6.30
2018-07-13T02:02:45.226Z,7.83
2018-07-13T02:05:49.710Z,12.83
2018-07-13T02:08:54.051Z,5.67
2018-07-13T02:11:58.605Z,6.30
2018-07-13T02:15:03.134Z,7.90
2018-07-13T02:18:07.596Z,7.33
2018-07-13T02:21:12.075Z,8.43
2018-07-13T02:24:16.319Z,6.97
2018-07-13T02:27:20.765Z,9.30
2018-07-13T02:30:25.349Z,5.17
2018-07-13T02:33:30.160Z,6.27
2018-07-13T02:36:34.976Z,7.73
2018-07-13T02:39:39.291Z,7.03
2018-07-13T02:42:43.290Z,8.10
2018-07-13T02:45:47.342Z,8.30
2018-07-13T02:48:51.804Z,6.23
2018-07-13T02:51:56.449Z,8.07
2018-07-13T02:55:00.793Z,6.07
2018-07-13T02:58:05.446Z,5.80
2018-07-13T03:01:10.724Z,10.33
2018-07-13T03:04:15.045Z,8.83
2018-07-13T03:07:19.466Z,6.50
2018-07-13T03:10:23.888Z,7.63
2018-07-13T03:13:28.322Z,6.77
2018-07-13T03:16:32.906Z,7.53
2018-07-13T03:19:42.871Z,6.87
2018-07-13T03:22:47.148Z,10.50
2018-07-13T03:25:51.535Z,12.17
2018-07-13T03:28:56.140Z,13.10
2018-07-13T03:32:00.682Z,14.23
2018-07-13T03:35:05.038Z,9.70
2018-07-13T03:38:09.537Z,14.70
2018-07-13T03:41:14.106Z,14.20
2018-07-13T03:44:18.696Z,14.80
2018-07-13T03:47:23.102Z,13.60
2018-07-13T03:50:27.655Z,10.70
2018-07-13T03:53:32.411Z,12.53
2018-07-13T03:56:37.239Z,10.73
2018-07-13T03:59:41.575Z,9.77
2018-07-13T04:02:46.208Z,8.97
2018-07-13T04:05:50.853Z,7.67
2018-07-13T04:08:55.491Z,8.77
2018-07-13T04:11:59.918Z,7.80
2018-07-13T04:15:04.655Z,9.63
2018-07-13T04:18:19.379Z,8.67
2018-07-13T04:21:23.832Z,7.10
2018-07-13T04:24:28.396Z,8.00
2018-07-13T04:27:34.424Z,8.10
2018-07-13T04:30:38.899Z,8.13
2018-07-13T04:33:43.504Z,6.90
2018-07-13T04:36:48.014Z,6.40
2018-07-13T04:39:52.825Z,7.50
2018-07-13T04:42:57.404Z,7.77
2018-07-13T04:46:02.136Z,8.73
2018-07-13T04:49:06.845Z,7.60
2018-07-13T04:52:11.403Z,6.53
2018-07-13T04:55:16.028Z,8.57
2018-07-13T04:58:20.599Z,6.17
2018-07-13T05:01:25.068Z,6.90
2018-07-13T05:04:29.539Z,7.07
2018-07-13T05:07:34.353Z,6.73
2018-07-13T05:10:38.966Z,7.53
2018-07-13T05:13:43.319Z,6.73
2018-07-13T05:16:47.921Z,6.70
2018-07-13T05:19:52.415Z,7.10
2018-07-13T05:22:56.902Z,6.60
2018-07-13T05:26:01.833Z,6.27
2018-07-13T05:29:06.165Z,8.87
2018-07-13T05:32:10.545Z,10.50
2018-07-13T05:35:14.948Z,6.60
2018-07-13T05:38:20.413Z,8.37
2018-07-13T05:41:24.919Z,8.90
2018-07-13T05:44:29.496Z,8.00
2018-07-13T05:47:34.222Z,8.00
2018-07-13T05:50:38.659Z,7.17
2018-07-13T05:53:43.206Z,7.33
2018-07-13T05:56:47.714Z,11.03
2018-07-13T05:59:52.037Z,9.23
2018-07-13T06:02:56.625Z,8.27
2018-07-13T06:06:01.038Z,8.63
2018-07-13T06:09:08.262Z,7.63
2018-07-13T06:12:13.228Z,9.50
2018-07-13T06:15:17.875Z,7.50
2018-07-13T06:18:22.134Z,8.67
2018-07-13T06:21:26.531Z,7.93
2018-07-13T06:24:30.892Z,6.53
2018-07-13T06:27:35.357Z,8.23
2018-07-13T06:30:39.738Z,7.03
2018-07-13T06:33:44.234Z,6.70
2018-07-13T06:36:48.707Z,6.70
2018-07-13T06:39:53.153Z,9.43
2018-07-13T06:42:57.590Z,7.00
2018-07-13T06:46:02.047Z,5.92
2018-07-13T06:49:06.555Z,6.58
2018-07-13T06:52:10.866Z,7.40
2018-07-13T06:55:20.697Z,6.72
2018-07-13T06:58:36.231Z,6.20
2018-07-13T07:01:45.556Z,7.75
2018-07-13T07:04:55.037Z,10.95
2018-07-13T07:08:17.872Z,6.10
2018-07-13T07:11:29.370Z,8.05
2018-07-13T07:14:50.082Z,9.33
2018-07-13T07:18:00.835Z,6.45
2018-07-13T07:21:20.513Z,7.62
2018-07-13T07:24:30.454Z,6.30
2018-07-13T07:31:08.635Z,6.20
2018-07-13T07:34:14.691Z,8.30
2018-07-13T07:37:24.354Z,6.78
2018-07-13T07:40:36.386Z,6.08
2018-07-13T07:43:44.077Z,6.65
2018-07-13T07:47:04.621Z,7.85
2018-07-13T07:50:18.142Z,5.35
2018-07-13T07:53:31.169Z,8.68
2018-07-13T07:56:46.284Z,7.00
2018-07-13T07:59:51.284Z,5.97
2018-07-13T08:02:56.155Z,19.20
2018-07-13T08:06:00.745Z,5.78
2018-07-13T08:09:06.925Z,6.03
2018-07-13T08:12:11.184Z,7.72
2018-07-13T08:15:15.540Z,6.53
2018-07-13T08:18:20.446Z,7.35
2018-07-13T08:21:28.195Z,6.58
2018-07-13T08:31:26.506Z,5.67
2018-07-13T08:43:19.326Z,3.37
2018-07-13T08:46:23.839Z,4.30
2018-07-13T08:49:28.352Z,3.83
2018-07-13T08:52:32.786Z,2.72
2018-07-13T08:55:38.219Z,3.65
2018-07-13T08:58:42.691Z,5.60
2018-07-13T09:01:47.439Z,2.65
2018-07-13T09:04:51.879Z,3.75
2018-07-13T09:07:56.413Z,4.47
2018-07-13T09:11:00.910Z,4.80
2018-07-13T09:14:05.296Z,4.85
2018-07-13T09:17:09.791Z,3.05
2018-07-13T09:20:14.334Z,4.03
2018-07-13T09:23:25.466Z,3.27
2018-07-13T09:26:31.049Z,3.08
2018-07-13T09:29:38.308Z,3.42
2018-07-13T09:32:44.619Z,2.92
2018-07-13T09:47:01.118Z,3.83
2018-07-13T09:50:08.866Z,3.95
2018-07-13T09:53:15.098Z,6.62
2018-07-13T10:06:58.688Z,6.40
2018-07-13T10:10:03.487Z,4.20
2018-07-13T10:13:08.268Z,3.15
2018-07-13T10:16:12.879Z,2.92
2018-07-13T10:19:18.045Z,4.10
2018-07-13T10:22:27.003Z,2.90
2018-07-13T10:25:32.015Z,6.90
2018-07-13T10:28:42.404Z,2.57
2018-07-13T10:31:47.312Z,3.27
2018-07-13T10:34:54.620Z,4.83
2018-07-13T10:37:59.395Z,5.40
2018-07-13T10:41:04.085Z,2.93
2018-07-13T10:44:08.869Z,2.43
2018-07-13T10:47:13.355Z,2.20
2018-07-13T10:50:19.393Z,2.33
2018-07-13T10:53:24.626Z,2.20
2018-07-13T10:56:29.221Z,4.00
2018-07-13T10:59:33.913Z,3.13
2018-07-13T11:02:38.476Z,5.37
2018-07-13T11:05:43.186Z,2.37
2018-07-13T11:08:58.225Z,2.47
2018-07-13T11:12:03.377Z,2.42
2018-07-13T11:15:09.447Z,2.00
2018-07-13T11:18:15.943Z,2.17
2018-07-13T11:21:20.937Z,2.05
2018-07-13T11:24:27.505Z,2.33
2018-07-13T11:27:32.418Z,5.67
2018-07-13T11:30:37.276Z,2.08
2018-07-13T11:33:42.074Z,2.20
2018-07-13T11:37:00.207Z,2.40
2018-07-13T11:40:08.191Z,3.73
2018-07-13T11:43:16.042Z,6.43
2018-07-13T11:46:26.283Z,3.47
2018-07-13T11:49:35.562Z,2.67
2018-07-13T11:52:48.582Z,3.97
2018-07-13T11:55:54.815Z,2.97
2018-07-13T11:59:01.295Z,3.10
2018-07-13T12:02:06.226Z,2.43
2018-07-13T12:05:11.947Z,3.87
2018-07-13T12:08:17.487Z,4.20
2018-07-13T12:11:22.424Z,3.67
2018-07-13T12:14:27.369Z,3.07
2018-07-13T12:17:33.391Z,2.37
2018-07-13T12:20:38.381Z,2.50
2018-07-13T12:23:45.467Z,2.40
2018-07-13T12:26:55.912Z,3.37
2018-07-13T12:30:02.219Z,3.10
2018-07-13T12:33:07.031Z,3.63
2018-07-13T12:36:16.593Z,3.57
2018-07-13T12:39:21.730Z,3.17
2018-07-13T12:42:52.493Z,3.73
2018-07-13T12:46:11.938Z,6.60
2018-07-13T12:49:40.219Z,2.30
2018-07-13T12:52:55.639Z,3.00
2018-07-13T12:56:00.391Z,2.70
2018-07-13T12:59:10.675Z,2.50
2018-07-13T13:02:21.409Z,3.93
2018-07-13T13:05:35.141Z,5.70
2018-07-13T13:08:46.845Z,4.83
2018-07-13T13:12:04.977Z,4.27
2018-07-13T13:15:12.323Z,2.87
2018-07-13T13:18:33.997Z,2.63
2018-07-13T13:21:41.465Z,2.60
2018-07-13T13:24:49.292Z,2.40
2018-07-13T13:31:21.810Z,2.33
2018-07-13T13:34:31.408Z,2.83
2018-07-13T13:37:38.486Z,2.20
2018-07-13T13:40:43.109Z,2.10
2018-07-13T13:43:49.476Z,3.90
2018-07-13T13:46:55.338Z,3.10
2018-07-13T13:50:00.460Z,2.30
2018-07-13T13:53:06.537Z,2.57
2018-07-13T13:56:11.114Z,3.27
2018-07-13T13:59:15.929Z,2.80
2018-07-13T14:02:21.032Z,2.90
2018-07-13T14:05:26.557Z,2.83
2018-07-13T14:08:31.048Z,2.60
2018-07-13T14:11:36.866Z,5.00
2018-07-13T14:14:47.667Z,3.00
2018-07-13T14:17:52.895Z,2.40
2018-07-13T14:20:58.332Z,2.97
2018-07-13T14:24:05.596Z,2.30
2018-07-13T14:27:11.964Z,2.67
2018-07-13T14:30:17.482Z,6.80
2018-07-13T14:33:26.708Z,2.50
2018-07-13T14:36:33.980Z,3.73
2018-07-13T14:39:39.653Z,3.57
2018-07-13T14:42:45.172Z,2.93
2018-07-13T14:45:51.093Z,3.93
2018-07-13T14:48:56.280Z,3.00
2018-07-13T14:52:01.538Z,3.20
2018-07-13T14:55:07.604Z,3.50
2018-07-13T14:58:12.003Z,4.47
2018-07-13T15:01:18.317Z,3.60
2018-07-13T15:04:24.416Z,2.77
2018-07-13T15:07:29.911Z,3.37
2018-07-13T15:10:39.387Z,3.47
2018-07-13T15:13:43.905Z,3.27
2018-07-13T15:16:48.372Z,3.37
2018-07-13T15:19:52.543Z,5.07
2018-07-13T15:22:58.458Z,5.03
2018-07-13T15:26:02.929Z,3.97
2018-07-13T15:29:07.451Z,3.30
2018-07-13T15:32:12.126Z,5.00
2018-07-13T15:35:16.513Z,7.03
2018-07-13T15:38:21.445Z,4.63
2018-07-13T15:41:26.049Z,4.10
2018-07-13T15:44:36.152Z,4.13
2018-07-13T15:47:41.508Z,4.30
2018-07-13T15:50:46.613Z,3.27
2018-07-13T15:53:51.040Z,5.10
2018-07-13T15:56:57.179Z,7.10
2018-07-13T16:00:01.835Z,3.40
2018-07-13T16:03:06.783Z,5.80
2018-07-13T16:06:11.419Z,3.23
2018-07-13T16:09:17.527Z,3.93
2018-07-13T16:12:22.631Z,3.30
2018-07-13T16:15:27.849Z,5.43
2018-07-13T16:18:34.501Z,5.43
2018-07-13T16:21:38.918Z,4.17
2018-07-13T16:24:44.718Z,4.80
2018-07-13T16:27:49.868Z,3.97
2018-07-13T16:30:54.615Z,4.70
2018-07-13T16:33:59.309Z,3.67
2018-07-13T16:37:03.874Z,4.10
2018-07-13T16:40:08.481Z,3.73
2018-07-13T16:43:13.108Z,3.50
2018-07-13T16:46:17.578Z,4.57
2018-07-13T16:49:22.664Z,3.87
2018-07-13T16:52:27.668Z,5.37
2018-07-13T16:55:32.968Z,3.63
2018-07-13T16:58:37.685Z,3.20
2018-07-13T17:01:42.355Z,3.20
2018-07-13T17:04:46.924Z,4.47
2018-07-13T17:07:51.512Z,3.20
2018-07-13T17:10:57.482Z,4.03
2018-07-13T17:14:02.927Z,3.10
2018-07-13T17:17:07.608Z,3.63
2018-07-13T17:20:11.887Z,3.27
2018-07-13T17:23:16.790Z,3.40
2018-07-13T17:26:21.403Z,3.10
2018-07-13T17:29:26.037Z,3.20
2018-07-13T17:32:30.994Z,3.80
2018-07-13T17:35:35.590Z,3.40
2018-07-13T17:38:40.154Z,4.80
2018-07-13T17:41:44.685Z,3.43
2018-07-13T17:44:49.068Z,3.03
2018-07-13T17:47:53.555Z,6.30
2018-07-13T17:50:57.893Z,4.87
2018-07-13T17:54:03.260Z,5.60
2018-07-13T17:57:08.013Z,10.03
2018-07-13T18:00:12.292Z,3.20
2018-07-13T18:03:16.728Z,4.43
2018-07-13T18:06:21.716Z,3.50
2018-07-13T18:09:26.244Z,2.67
2018-07-13T18:12:31.412Z,3.63
2018-07-13T18:15:37.589Z,5.43
2018-07-13T18:18:42.011Z,4.30
2018-07-13T18:21:46.482Z,3.50
2018-07-13T18:24:51.430Z,4.53
2018-07-13T18:27:55.935Z,3.23
2018-07-13T18:31:00.680Z,6.97
2018-07-13T18:34:05.131Z,6.83
2018-07-13T18:37:10.794Z,5.57
2018-07-13T18:40:15.189Z,6.73
2018-07-13T18:43:20.433Z,3.67
2018-07-13T18:46:25.063Z,4.57
2018-07-13T18:49:29.826Z,3.77
2018-07-13T18:52:34.405Z,4.90
2018-07-13T18:55:38.706Z,4.00
2018-07-13T18:58:43.735Z,5.20
2018-07-13T19:01:48.244Z,3.90
2018-07-13T19:04:52.989Z,4.23
2018-07-13T19:07:57.853Z,4.47
2018-07-13T19:11:02.610Z,4.60
2018-07-13T19:14:07.362Z,6.90
2018-07-13T19:17:12.062Z,4.40
2018-07-13T19:20:16.823Z,4.83
2018-07-13T19:23:21.478Z,5.53
2018-07-13T19:26:26.066Z,5.67
2018-07-13T19:29:31.019Z,3.80
2018-07-13T19:32:35.372Z,6.00
2018-07-13T19:35:39.727Z,7.77
2018-07-13T19:38:44.313Z,6.97
2018-07-13T19:41:49.534Z,5.00
2018-07-13T19:44:53.929Z,4.23
2018-07-13T19:47:58.255Z,5.00
2018-07-13T19:51:02.675Z,4.50
2018-07-13T19:54:07.150Z,5.53
2018-07-13T19:57:11.896Z,4.03
2018-07-13T20:00:16.472Z,6.00
2018-07-13T20:03:21.084Z,8.30
2018-07-13T20:06:26.521Z,4.83
2018-07-13T20:09:30.995Z,6.63
2018-07-13T20:12:35.561Z,6.00
2018-07-13T20:15:39.986Z,8.27
2018-07-13T20:18:44.835Z,4.90
2018-07-13T20:21:49.261Z,5.33
2018-07-13T20:24:54.189Z,7.27
2018-07-13T20:27:59.277Z,7.77
2018-07-13T20:31:03.912Z,8.67
2018-07-13T20:34:08.460Z,8.37
2018-07-13T20:37:12.855Z,8.00
2018-07-13T20:40:17.716Z,6.30
2018-07-13T20:43:22.060Z,4.90
2018-07-13T20:46:26.440Z,5.17
2018-07-13T20:49:32.083Z,4.97
2018-07-13T20:52:36.797Z,6.13
2018-07-13T20:55:41.364Z,4.43
2018-07-13T20:58:46.027Z,6.80
2018-07-13T21:01:50.598Z,7.60
2018-07-13T21:04:56.490Z,5.43
2018-07-13T21:08:01.206Z,5.07
2018-07-13T21:11:06.737Z,6.53
2018-07-13T21:14:11.437Z,7.87
2018-07-13T21:17:17.906Z,5.47
2018-07-13T21:20:25.600Z,5.80
2018-07-13T21:23:30.294Z,7.77
2018-07-13T21:26:34.867Z,9.00
2018-07-13T21:29:39.820Z,4.60
2018-07-13T21:32:44.881Z,6.63
2018-07-13T21:40:02.497Z,5.83
2018-07-13T21:43:08.552Z,6.23
2018-07-13T21:46:13.231Z,7.17
2018-07-13T21:49:17.523Z,7.13
2018-07-13T21:52:22.057Z,7.77
2018-07-13T21:55:26.553Z,8.80
2018-07-13T21:58:31.406Z,7.57
2018-07-13T22:01:36.075Z,8.00
2018-07-13T22:04:42.829Z,6.60
2018-07-13T22:07:47.856Z,6.60
2018-07-13T22:10:59.475Z,7.50
2018-07-13T22:14:04.022Z,6.37
2018-07-13T22:17:09.448Z,5.30
2018-07-13T22:20:15.779Z,4.83
2018-07-13T22:23:20.772Z,6.90
2018-07-13T22:26:25.487Z,7.80
2018-07-13T22:29:30.076Z,8.27
2018-07-13T22:32:34.452Z,7.27
2018-07-13T22:35:38.968Z,5.83
2018-07-13T22:38:43.518Z,5.60
2018-07-13T22:41:48.615Z,6.50
2018-07-13T22:44:53.230Z,8.50
2018-07-13T22:47:57.798Z,6.80
2018-07-13T22:51:02.750Z,7.57
2018-07-13T22:54:08.234Z,8.40
2018-07-13T22:57:12.821Z,7.47
2018-07-13T23:00:18.047Z,9.20
2018-07-13T23:03:23.345Z,8.43
2018-07-13T23:06:27.947Z,8.37
2018-07-13T23:09:32.674Z,7.47
2018-07-13T23:12:37.061Z,8.03
2018-07-13T23:15:41.752Z,8.07
2018-07-13T23:18:46.385Z,8.70
2018-07-13T23:21:51.393Z,8.37
2018-07-13T23:24:56.560Z,7.70
2018-07-13T23:28:01.437Z,7.73
2018-07-13T23:31:06.116Z,7.20
2018-07-13T23:34:10.837Z,7.17
2018-07-13T23:37:15.813Z,7.73
2018-07-13T23:40:21.064Z,7.83
2018-07-13T23:43:25.774Z,6.70
2018-07-13T23:46:31.805Z,5.97
2018-07-13T23:49:36.560Z,7.53
2018-07-13T23:52:41.206Z,7.40
2018-07-13T23:55:45.828Z,6.60
2018-07-13T23:58:50.618Z,8.53
